sensor_id;sensor_type;location;lat;lon;timestamp;P1;durP1;ratioP1;P2;durP2;ratioP2
20890;SDS011;10605;52.968;8.844;2023-02-28T00:01:26;22.10;;;12.95;;
20890;SDS011;10605;52.968;8.844;2023-02-28T00:03:52;18.67;;;11.82;;
20890;SDS011;10605;52.968;8.844;2023-02-28T00:06:17;14.23;;;11.65;;
20890;SDS011;10605;52.968;8.844;2023-02-28T00:08:43;13.68;;;12.13;;
20890;SDS011;10605;52.968;8.844;2023-02-28T00:11:10;17.70;;;12.43;;
20890;SDS011;10605;52.968;8.844;2023-02-28T00:13:38;12.95;;;11.50;;
20890;SDS011;10605;52.968;8.844;2023-02-28T00:16:07;21.88;;;12.52;;
20890;SDS011;10605;52.968;8.844;2023-02-28T00:18:36;21.30;;;13.50;;
20890;SDS011;10605;52.968;8.844;2023-02-28T00:21:03;21.75;;;13.25;;
20890;SDS011;10605;52.968;8.844;2023-02-28T00:23:29;21.10;;;13.65;;
20890;SDS011;10605;52.968;8.844;2023-02-28T00:25:55;18.58;;;12.80;;
20890;SDS011;10605;52.968;8.844;2023-02-28T00:28:21;16.35;;;12.15;;
20890;SDS011;10605;52.968;8.844;2023-02-28T00:30:47;18.40;;;12.57;;
20890;SDS011;10605;52.968;8.844;2023-02-28T00:33:13;20.95;;;13.60;;
20890;SDS011;10605;52.968;8.844;2023-02-28T00:35:39;29.25;;;15.38;;
20890;SDS011;10605;52.968;8.844;2023-02-28T00:38:05;19.48;;;14.18;;
20890;SDS011;10605;52.968;8.844;2023-02-28T00:40:30;21.60;;;14.85;;
20890;SDS011;10605;52.968;8.844;2023-02-28T00:42:56;21.40;;;14.57;;
20890;SDS011;10605;52.968;8.844;2023-02-28T00:45:22;20.27;;;14.02;;
20890;SDS011;10605;52.968;8.844;2023-02-28T00:47:48;19.58;;;13.95;;
20890;SDS011;10605;52.968;8.844;2023-02-28T00:50:17;20.95;;;14.07;;
20890;SDS011;10605;52.968;8.844;2023-02-28T00:52:45;23.90;;;14.43;;
20890;SDS011;10605;52.968;8.844;2023-02-28T00:55:11;19.90;;;14.23;;
20890;SDS011;10605;52.968;8.844;2023-02-28T00:57:36;20.92;;;14.10;;
20890;SDS011;10605;52.968;8.844;2023-02-28T01:00:02;20.23;;;14.35;;
20890;SDS011;10605;52.968;8.844;2023-02-28T01:02:28;22.58;;;14.02;;
20890;SDS011;10605;52.968;8.844;2023-02-28T01:04:54;23.40;;;14.82;;
20890;SDS011;10605;52.968;8.844;2023-02-28T01:07:21;24.73;;;15.15;;
20890;SDS011;10605;52.968;8.844;2023-02-28T01:09:47;24.10;;;15.05;;
20890;SDS011;10605;52.968;8.844;2023-02-28T01:12:13;22.58;;;14.43;;
20890;SDS011;10605;52.968;8.844;2023-02-28T01:14:39;29.35;;;16.30;;
20890;SDS011;10605;52.968;8.844;2023-02-28T01:17:05;25.40;;;16.02;;
20890;SDS011;10605;52.968;8.844;2023-02-28T01:19:30;24.73;;;14.90;;
20890;SDS011;10605;52.968;8.844;2023-02-28T01:21:56;27.35;;;16.77;;
20890;SDS011;10605;52.968;8.844;2023-02-28T01:24:25;23.60;;;15.65;;
20890;SDS011;10605;52.968;8.844;2023-02-28T01:26:50;26.98;;;15.98;;
20890;SDS011;10605;52.968;8.844;2023-02-28T01:29:16;27.55;;;15.93;;
20890;SDS011;10605;52.968;8.844;2023-02-28T01:31:42;23.88;;;14.85;;
20890;SDS011;10605;52.968;8.844;2023-02-28T01:34:07;22.77;;;14.43;;
20890;SDS011;10605;52.968;8.844;2023-02-28T01:36:33;28.10;;;15.23;;
20890;SDS011;10605;52.968;8.844;2023-02-28T01:38:59;22.02;;;14.38;;
20890;SDS011;10605;52.968;8.844;2023-02-28T01:41:28;24.65;;;15.80;;
20890;SDS011;10605;52.968;8.844;2023-02-28T01:46:25;24.35;;;16.27;;
20890;SDS011;10605;52.968;8.844;2023-02-28T01:49:11;25.35;;;15.07;;
20890;SDS011;10605;52.968;8.844;2023-02-28T01:51:50;21.95;;;13.75;;
20890;SDS011;10605;52.968;8.844;2023-02-28T01:54:24;26.40;;;14.48;;
20890;SDS011;10605;52.968;8.844;2023-02-28T01:57:01;21.35;;;14.07;;
20890;SDS011;10605;52.968;8.844;2023-02-28T01:59:37;25.65;;;13.93;;
20890;SDS011;10605;52.968;8.844;2023-02-28T02:02:11;27.83;;;15.70;;
20890;SDS011;10605;52.968;8.844;2023-02-28T02:04:46;23.73;;;14.02;;
20890;SDS011;10605;52.968;8.844;2023-02-28T02:07:15;26.70;;;15.02;;
20890;SDS011;10605;52.968;8.844;2023-02-28T02:09:41;22.67;;;14.70;;
20890;SDS011;10605;52.968;8.844;2023-02-28T02:12:51;22.35;;;13.85;;
20890;SDS011;10605;52.968;8.844;2023-02-28T02:15:16;21.80;;;13.87;;
20890;SDS011;10605;52.968;8.844;2023-02-28T02:17:52;18.48;;;12.93;;
20890;SDS011;10605;52.968;8.844;2023-02-28T02:31:21;15.90;;;11.02;;
20890;SDS011;10605;52.968;8.844;2023-02-28T02:34:10;22.50;;;12.32;;
20890;SDS011;10605;52.968;8.844;2023-02-28T02:39:48;14.82;;;11.15;;
20890;SDS011;10605;52.968;8.844;2023-02-28T02:42:29;13.90;;;11.80;;
20890;SDS011;10605;52.968;8.844;2023-02-28T02:45:02;15.77;;;11.70;;
20890;SDS011;10605;52.968;8.844;2023-02-28T02:47:37;17.35;;;12.40;;
20890;SDS011;10605;52.968;8.844;2023-02-28T02:50:07;17.20;;;12.55;;
20890;SDS011;10605;52.968;8.844;2023-02-28T02:52:39;13.10;;;11.70;;
20890;SDS011;10605;52.968;8.844;2023-02-28T02:55:08;16.23;;;11.32;;
20890;SDS011;10605;52.968;8.844;2023-02-28T02:57:40;15.30;;;12.67;;
20890;SDS011;10605;52.968;8.844;2023-02-28T03:00:11;17.37;;;12.57;;
20890;SDS011;10605;52.968;8.844;2023-02-28T03:02:41;18.33;;;12.83;;
20890;SDS011;10605;52.968;8.844;2023-02-28T03:05:18;17.40;;;12.53;;
20890;SDS011;10605;52.968;8.844;2023-02-28T03:07:53;21.70;;;13.70;;
20890;SDS011;10605;52.968;8.844;2023-02-28T03:10:28;19.93;;;13.47;;
20890;SDS011;10605;52.968;8.844;2023-02-28T03:16:05;23.45;;;13.70;;
20890;SDS011;10605;52.968;8.844;2023-02-28T03:21:06;20.77;;;14.13;;
20890;SDS011;10605;52.968;8.844;2023-02-28T03:23:45;19.20;;;13.67;;
20890;SDS011;10605;52.968;8.844;2023-02-28T03:26:24;15.05;;;13.02;;
20890;SDS011;10605;52.968;8.844;2023-02-28T03:29:02;17.97;;;12.90;;
20890;SDS011;10605;52.968;8.844;2023-02-28T03:31:58;21.92;;;13.00;;
20890;SDS011;10605;52.968;8.844;2023-02-28T03:37:02;18.50;;;13.43;;
20890;SDS011;10605;52.968;8.844;2023-02-28T03:39:59;17.15;;;13.25;;
20890;SDS011;10605;52.968;8.844;2023-02-28T03:42:31;17.67;;;12.47;;
20890;SDS011;10605;52.968;8.844;2023-02-28T03:45:05;21.87;;;13.20;;
20890;SDS011;10605;52.968;8.844;2023-02-28T03:50:36;19.57;;;12.80;;
20890;SDS011;10605;52.968;8.844;2023-02-28T03:53:14;19.67;;;12.87;;
20890;SDS011;10605;52.968;8.844;2023-02-28T03:56:48;22.40;;;13.47;;
20890;SDS011;10605;52.968;8.844;2023-02-28T03:58:57;17.80;;;13.13;;
20890;SDS011;10605;52.968;8.844;2023-02-28T04:01:37;20.58;;;13.70;;
20890;SDS011;10605;52.968;8.844;2023-02-28T04:04:06;21.70;;;13.83;;
20890;SDS011;10605;52.968;8.844;2023-02-28T04:06:33;19.00;;;13.23;;
20890;SDS011;10605;52.968;8.844;2023-02-28T04:09:00;22.90;;;13.68;;
20890;SDS011;10605;52.968;8.844;2023-02-28T04:11:32;20.23;;;13.88;;
20890;SDS011;10605;52.968;8.844;2023-02-28T04:14:00;18.65;;;13.20;;
20890;SDS011;10605;52.968;8.844;2023-02-28T04:16:29;22.23;;;14.65;;
20890;SDS011;10605;52.968;8.844;2023-02-28T04:18:56;16.08;;;13.68;;
20890;SDS011;10605;52.968;8.844;2023-02-28T04:21:30;21.93;;;14.23;;
20890;SDS011;10605;52.968;8.844;2023-02-28T04:23:57;18.73;;;13.63;;
20890;SDS011;10605;52.968;8.844;2023-02-28T04:26:29;18.87;;;13.07;;
20890;SDS011;10605;52.968;8.844;2023-02-28T04:28:56;20.67;;;13.03;;
20890;SDS011;10605;52.968;8.844;2023-02-28T04:31:21;14.87;;;13.10;;
20890;SDS011;10605;52.968;8.844;2023-02-28T04:33:47;18.80;;;12.90;;
20890;SDS011;10605;52.968;8.844;2023-02-28T04:36:13;21.75;;;13.52;;
20890;SDS011;10605;52.968;8.844;2023-02-28T04:38:39;19.50;;;12.63;;
20890;SDS011;10605;52.968;8.844;2023-02-28T04:41:05;17.73;;;13.30;;
20890;SDS011;10605;52.968;8.844;2023-02-28T04:43:31;23.65;;;14.57;;
20890;SDS011;10605;52.968;8.844;2023-02-28T04:45:58;21.38;;;14.65;;
20890;SDS011;10605;52.968;8.844;2023-02-28T04:48:28;16.15;;;13.68;;
20890;SDS011;10605;52.968;8.844;2023-02-28T04:50:54;17.33;;;14.13;;
20890;SDS011;10605;52.968;8.844;2023-02-28T04:53:20;19.48;;;13.65;;
20890;SDS011;10605;52.968;8.844;2023-02-28T04:55:46;18.55;;;13.73;;
20890;SDS011;10605;52.968;8.844;2023-02-28T04:58:12;22.13;;;14.40;;
20890;SDS011;10605;52.968;8.844;2023-02-28T05:00:38;22.43;;;13.53;;
20890;SDS011;10605;52.968;8.844;2023-02-28T05:03:04;21.03;;;14.40;;
20890;SDS011;10605;52.968;8.844;2023-02-28T05:05:30;19.00;;;14.20;;
20890;SDS011;10605;52.968;8.844;2023-02-28T05:07:55;21.10;;;14.20;;
20890;SDS011;10605;52.968;8.844;2023-02-28T05:10:24;25.23;;;14.65;;
20890;SDS011;10605;52.968;8.844;2023-02-28T05:12:50;20.60;;;14.13;;
20890;SDS011;10605;52.968;8.844;2023-02-28T05:15:16;17.30;;;13.70;;
20890;SDS011;10605;52.968;8.844;2023-02-28T05:17:43;22.73;;;14.47;;
20890;SDS011;10605;52.968;8.844;2023-02-28T05:20:09;21.58;;;13.57;;
20890;SDS011;10605;52.968;8.844;2023-02-28T05:22:38;20.37;;;13.67;;
20890;SDS011;10605;52.968;8.844;2023-02-28T05:25:05;21.43;;;14.33;;
20890;SDS011;10605;52.968;8.844;2023-02-28T05:27:31;22.13;;;14.60;;
20890;SDS011;10605;52.968;8.844;2023-02-28T05:29:57;21.47;;;14.67;;
20890;SDS011;10605;52.968;8.844;2023-02-28T05:32:24;19.27;;;14.63;;
20890;SDS011;10605;52.968;8.844;2023-02-28T05:34:50;19.97;;;14.63;;
20890;SDS011;10605;52.968;8.844;2023-02-28T05:37:15;19.43;;;14.63;;
20890;SDS011;10605;52.968;8.844;2023-02-28T05:39:42;21.00;;;14.27;;
20890;SDS011;10605;52.968;8.844;2023-02-28T05:42:07;20.60;;;14.60;;
20890;SDS011;10605;52.968;8.844;2023-02-28T05:44:35;19.43;;;14.73;;
20890;SDS011;10605;52.968;8.844;2023-02-28T05:47:01;22.07;;;15.33;;
20890;SDS011;10605;52.968;8.844;2023-02-28T05:49:27;25.03;;;16.50;;
20890;SDS011;10605;52.968;8.844;2023-02-28T05:51:53;18.80;;;15.50;;
20890;SDS011;10605;52.968;8.844;2023-02-28T05:54:18;23.27;;;15.90;;
20890;SDS011;10605;52.968;8.844;2023-02-28T05:56:44;29.90;;;16.70;;
20890;SDS011;10605;52.968;8.844;2023-02-28T05:59:11;21.93;;;16.00;;
20890;SDS011;10605;52.968;8.844;2023-02-28T06:01:42;24.80;;;17.00;;
20890;SDS011;10605;52.968;8.844;2023-02-28T06:04:17;26.93;;;17.37;;
20890;SDS011;10605;52.968;8.844;2023-02-28T06:06:44;25.53;;;17.93;;
20890;SDS011;10605;52.968;8.844;2023-02-28T06:09:13;28.57;;;17.20;;
20890;SDS011;10605;52.968;8.844;2023-02-28T06:11:40;27.27;;;16.67;;
20890;SDS011;10605;52.968;8.844;2023-02-28T06:14:07;26.57;;;17.87;;
20890;SDS011;10605;52.968;8.844;2023-02-28T06:16:44;24.53;;;16.70;;
20890;SDS011;10605;52.968;8.844;2023-02-28T06:19:10;25.00;;;16.97;;
20890;SDS011;10605;52.968;8.844;2023-02-28T06:21:36;27.10;;;17.10;;
20890;SDS011;10605;52.968;8.844;2023-02-28T06:24:02;23.13;;;16.60;;
20890;SDS011;10605;52.968;8.844;2023-02-28T06:26:28;20.10;;;15.07;;
20890;SDS011;10605;52.968;8.844;2023-02-28T06:28:54;20.83;;;14.77;;
20890;SDS011;10605;52.968;8.844;2023-02-28T06:31:23;21.97;;;14.17;;
20890;SDS011;10605;52.968;8.844;2023-02-28T06:33:50;26.00;;;15.83;;
20890;SDS011;10605;52.968;8.844;2023-02-28T06:36:17;23.63;;;15.47;;
20890;SDS011;10605;52.968;8.844;2023-02-28T06:38:43;24.77;;;15.93;;
20890;SDS011;10605;52.968;8.844;2023-02-28T06:41:09;22.23;;;16.30;;
20890;SDS011;10605;52.968;8.844;2023-02-28T06:43:39;28.53;;;17.50;;
20890;SDS011;10605;52.968;8.844;2023-02-28T06:46:13;17.93;;;15.50;;
20890;SDS011;10605;52.968;8.844;2023-02-28T06:48:39;17.80;;;15.00;;
20890;SDS011;10605;52.968;8.844;2023-02-28T06:51:07;16.08;;;13.15;;
20890;SDS011;10605;52.968;8.844;2023-02-28T06:53:35;15.83;;;13.23;;
20890;SDS011;10605;52.968;8.844;2023-02-28T06:56:08;14.83;;;12.43;;
20890;SDS011;10605;52.968;8.844;2023-02-28T06:58:35;15.40;;;12.30;;
20890;SDS011;10605;52.968;8.844;2023-02-28T07:01:02;19.90;;;12.67;;
20890;SDS011;10605;52.968;8.844;2023-02-28T07:03:28;17.90;;;13.20;;
20890;SDS011;10605;52.968;8.844;2023-02-28T07:05:54;15.60;;;12.63;;
20890;SDS011;10605;52.968;8.844;2023-02-28T07:08:24;17.88;;;12.63;;
20890;SDS011;10605;52.968;8.844;2023-02-28T07:10:52;14.80;;;12.45;;
20890;SDS011;10605;52.968;8.844;2023-02-28T07:13:21;14.63;;;12.05;;
20890;SDS011;10605;52.968;8.844;2023-02-28T07:15:57;19.63;;;12.52;;
20890;SDS011;10605;52.968;8.844;2023-02-28T07:18:24;13.05;;;11.15;;
20890;SDS011;10605;52.968;8.844;2023-02-28T07:20:50;16.67;;;10.75;;
20890;SDS011;10605;52.968;8.844;2023-02-28T07:23:16;11.40;;;9.73;;
20890;SDS011;10605;52.968;8.844;2023-02-28T07:25:43;12.02;;;9.23;;
20890;SDS011;10605;52.968;8.844;2023-02-28T07:28:10;14.05;;;8.73;;
20890;SDS011;10605;52.968;8.844;2023-02-28T07:30:36;11.02;;;8.48;;
20890;SDS011;10605;52.968;8.844;2023-02-28T07:33:05;9.57;;;8.55;;
20890;SDS011;10605;52.968;8.844;2023-02-28T07:35:34;9.68;;;8.68;;
20890;SDS011;10605;52.968;8.844;2023-02-28T07:38:03;10.25;;;8.13;;
20890;SDS011;10605;52.968;8.844;2023-02-28T07:40:29;9.80;;;7.78;;
20890;SDS011;10605;52.968;8.844;2023-02-28T07:42:55;10.82;;;7.78;;
20890;SDS011;10605;52.968;8.844;2023-02-28T07:45:20;8.35;;;7.68;;
20890;SDS011;10605;52.968;8.844;2023-02-28T07:47:49;9.15;;;8.25;;
20890;SDS011;10605;52.968;8.844;2023-02-28T07:50:25;9.27;;;8.02;;
20890;SDS011;10605;52.968;8.844;2023-02-28T07:52:54;8.20;;;7.43;;
20890;SDS011;10605;52.968;8.844;2023-02-28T07:55:23;10.80;;;7.40;;
20890;SDS011;10605;52.968;8.844;2023-02-28T07:57:49;9.68;;;6.93;;
20890;SDS011;10605;52.968;8.844;2023-02-28T08:00:20;9.02;;;7.22;;
20890;SDS011;10605;52.968;8.844;2023-02-28T08:02:48;10.68;;;7.13;;
20890;SDS011;10605;52.968;8.844;2023-02-28T08:05:14;9.88;;;7.80;;
20890;SDS011;10605;52.968;8.844;2023-02-28T08:07:41;11.73;;;7.05;;
20890;SDS011;10605;52.968;8.844;2023-02-28T08:10:09;12.18;;;6.95;;
20890;SDS011;10605;52.968;8.844;2023-02-28T08:12:35;8.73;;;7.15;;
20890;SDS011;10605;52.968;8.844;2023-02-28T08:15:01;8.52;;;6.80;;
20890;SDS011;10605;52.968;8.844;2023-02-28T08:17:29;7.43;;;6.50;;
20890;SDS011;10605;52.968;8.844;2023-02-28T08:19:55;7.80;;;6.15;;
20890;SDS011;10605;52.968;8.844;2023-02-28T08:22:21;6.65;;;6.00;;
20890;SDS011;10605;52.968;8.844;2023-02-28T08:24:49;6.28;;;5.78;;
20890;SDS011;10605;52.968;8.844;2023-02-28T08:27:17;7.07;;;5.90;;
20890;SDS011;10605;52.968;8.844;2023-02-28T08:29:43;8.73;;;6.15;;
20890;SDS011;10605;52.968;8.844;2023-02-28T08:32:09;7.32;;;6.07;;
20890;SDS011;10605;52.968;8.844;2023-02-28T08:34:38;9.18;;;5.95;;
20890;SDS011;10605;52.968;8.844;2023-02-28T08:37:05;6.80;;;6.20;;
20890;SDS011;10605;52.968;8.844;2023-02-28T08:39:39;5.70;;;5.20;;
20890;SDS011;10605;52.968;8.844;2023-02-28T08:42:04;6.78;;;5.80;;
20890;SDS011;10605;52.968;8.844;2023-02-28T08:44:30;5.93;;;5.32;;
20890;SDS011;10605;52.968;8.844;2023-02-28T08:46:58;5.30;;;4.75;;
20890;SDS011;10605;52.968;8.844;2023-02-28T08:49:27;6.72;;;5.15;;
20890;SDS011;10605;52.968;8.844;2023-02-28T08:51:55;6.80;;;4.75;;
20890;SDS011;10605;52.968;8.844;2023-02-28T08:54:22;5.22;;;4.30;;
20890;SDS011;10605;52.968;8.844;2023-02-28T08:56:48;7.85;;;4.85;;
20890;SDS011;10605;52.968;8.844;2023-02-28T08:59:14;11.90;;;10.75;;
20890;SDS011;10605;52.968;8.844;2023-02-28T09:01:43;6.65;;;6.15;;
20890;SDS011;10605;52.968;8.844;2023-02-28T09:04:12;6.57;;;5.93;;
20890;SDS011;10605;52.968;8.844;2023-02-28T09:06:42;12.23;;;11.07;;
20890;SDS011;10605;52.968;8.844;2023-02-28T09:09:09;6.95;;;6.43;;
20890;SDS011;10605;52.968;8.844;2023-02-28T09:11:38;4.13;;;3.80;;
20890;SDS011;10605;52.968;8.844;2023-02-28T09:14:04;4.30;;;3.90;;
20890;SDS011;10605;52.968;8.844;2023-02-28T09:16:30;6.60;;;3.40;;
20890;SDS011;10605;52.968;8.844;2023-02-28T09:18:56;3.78;;;3.05;;
20890;SDS011;10605;52.968;8.844;2023-02-28T09:21:25;3.60;;;3.30;;
20890;SDS011;10605;52.968;8.844;2023-02-28T09:23:54;2.67;;;2.45;;
20890;SDS011;10605;52.968;8.844;2023-02-28T09:26:21;2.63;;;1.90;;
20890;SDS011;10605;52.968;8.844;2023-02-28T09:28:55;3.70;;;2.65;;
20890;SDS011;10605;52.968;8.844;2023-02-28T09:31:25;3.38;;;1.77;;
20890;SDS011;10605;52.968;8.844;2023-02-28T09:33:53;2.78;;;1.80;;
20890;SDS011;10605;52.968;8.844;2023-02-28T09:36:29;2.55;;;1.45;;
20890;SDS011;10605;52.968;8.844;2023-02-28T09:38:58;2.33;;;1.80;;
20890;SDS011;10605;52.968;8.844;2023-02-28T09:41:29;2.97;;;2.78;;
20890;SDS011;10605;52.968;8.844;2023-02-28T09:44:02;2.25;;;1.73;;
20890;SDS011;10605;52.968;8.844;2023-02-28T09:46:32;2.85;;;1.70;;
20890;SDS011;10605;52.968;8.844;2023-02-28T09:49:28;1.60;;;1.40;;
20890;SDS011;10605;52.968;8.844;2023-02-28T09:51:59;2.53;;;0.82;;
20890;SDS011;10605;52.968;8.844;2023-02-28T09:54:38;1.05;;;1.02;;
20890;SDS011;10605;52.968;8.844;2023-02-28T10:06:11;1.85;;;1.00;;
20890;SDS011;10605;52.968;8.844;2023-02-28T10:08:58;0.82;;;0.82;;
20890;SDS011;10605;52.968;8.844;2023-02-28T10:11:54;1.17;;;0.80;;
20890;SDS011;10605;52.968;8.844;2023-02-28T10:14:25;1.17;;;0.95;;
20890;SDS011;10605;52.968;8.844;2023-02-28T10:17:02;2.67;;;0.73;;
20890;SDS011;10605;52.968;8.844;2023-02-28T10:19:44;0.73;;;0.73;;
20890;SDS011;10605;52.968;8.844;2023-02-28T10:24:45;4.82;;;1.10;;
20890;SDS011;10605;52.968;8.844;2023-02-28T10:27:17;0.75;;;0.70;;
20890;SDS011;10605;52.968;8.844;2023-02-28T10:29:48;0.85;;;0.80;;
20890;SDS011;10605;52.968;8.844;2023-02-28T10:32:27;1.73;;;0.95;;
20890;SDS011;10605;52.968;8.844;2023-02-28T10:35:00;1.08;;;0.98;;
20890;SDS011;10605;52.968;8.844;2023-02-28T10:37:37;2.28;;;1.33;;
20890;SDS011;10605;52.968;8.844;2023-02-28T10:45:51;1.30;;;1.10;;
20890;SDS011;10605;52.968;8.844;2023-02-28T10:51:00;1.00;;;0.60;;
20890;SDS011;10605;52.968;8.844;2023-02-28T10:53:33;2.50;;;0.90;;
20890;SDS011;10605;52.968;8.844;2023-02-28T10:58:57;0.75;;;0.75;;
20890;SDS011;10605;52.968;8.844;2023-02-28T11:03:57;3.92;;;1.10;;
20890;SDS011;10605;52.968;8.844;2023-02-28T11:06:33;1.00;;;0.90;;
20890;SDS011;10605;52.968;8.844;2023-02-28T11:09:18;1.10;;;1.00;;
20890;SDS011;10605;52.968;8.844;2023-02-28T11:12:04;0.82;;;0.82;;
20890;SDS011;10605;52.968;8.844;2023-02-28T11:14:50;1.05;;;0.95;;
20890;SDS011;10605;52.968;8.844;2023-02-28T11:17:24;1.55;;;1.30;;
20890;SDS011;10605;52.968;8.844;2023-02-28T11:19:58;1.42;;;0.90;;
20890;SDS011;10605;52.968;8.844;2023-02-28T11:22:29;1.23;;;1.00;;
20890;SDS011;10605;52.968;8.844;2023-02-28T11:25:25;0.77;;;0.77;;
20890;SDS011;10605;52.968;8.844;2023-02-28T11:27:57;0.95;;;0.93;;
20890;SDS011;10605;52.968;8.844;2023-02-28T11:30:40;2.22;;;1.30;;
20890;SDS011;10605;52.968;8.844;2023-02-28T11:33:21;0.70;;;0.70;;
20890;SDS011;10605;52.968;8.844;2023-02-28T11:35:51;1.67;;;1.05;;
20890;SDS011;10605;52.968;8.844;2023-02-28T11:38:17;1.25;;;1.10;;
20890;SDS011;10605;52.968;8.844;2023-02-28T11:41:02;2.00;;;1.17;;
20890;SDS011;10605;52.968;8.844;2023-02-28T11:46:47;1.20;;;1.10;;
20890;SDS011;10605;52.968;8.844;2023-02-28T11:49:26;2.28;;;1.30;;
20890;SDS011;10605;52.968;8.844;2023-02-28T11:54:56;1.40;;;1.20;;
20890;SDS011;10605;52.968;8.844;2023-02-28T12:05:51;3.63;;;1.23;;
20890;SDS011;10605;52.968;8.844;2023-02-28T12:08:42;2.20;;;1.23;;
20890;SDS011;10605;52.968;8.844;2023-02-28T12:11:38;2.38;;;1.30;;
20890;SDS011;10605;52.968;8.844;2023-02-28T12:14:23;1.77;;;1.20;;
20890;SDS011;10605;52.968;8.844;2023-02-28T12:16:57;2.35;;;1.17;;
20890;SDS011;10605;52.968;8.844;2023-02-28T12:19:31;1.73;;;1.10;;
20890;SDS011;10605;52.968;8.844;2023-02-28T12:27:29;1.33;;;1.23;;
20890;SDS011;10605;52.968;8.844;2023-02-28T12:30:08;3.13;;;1.30;;
20890;SDS011;10605;52.968;8.844;2023-02-28T12:33:12;1.40;;;1.30;;
20890;SDS011;10605;52.968;8.844;2023-02-28T12:38:30;1.35;;;1.25;;
20890;SDS011;10605;52.968;8.844;2023-02-28T12:41:03;1.42;;;1.10;;
20890;SDS011;10605;52.968;8.844;2023-02-28T12:43:40;1.38;;;1.27;;
20890;SDS011;10605;52.968;8.844;2023-02-28T12:48:48;1.38;;;1.27;;
20890;SDS011;10605;52.968;8.844;2023-02-28T12:51:21;1.50;;;1.33;;
20890;SDS011;10605;52.968;8.844;2023-02-28T12:53:59;1.63;;;1.33;;
20890;SDS011;10605;52.968;8.844;2023-02-28T12:56:48;2.97;;;1.70;;
20890;SDS011;10605;52.968;8.844;2023-02-28T12:59:23;1.63;;;1.35;;
20890;SDS011;10605;52.968;8.844;2023-02-28T13:13:24;1.52;;;1.33;;
20890;SDS011;10605;52.968;8.844;2023-02-28T13:18:42;1.50;;;1.40;;
20890;SDS011;10605;52.968;8.844;2023-02-28T13:58:09;1.50;;;1.40;;
20890;SDS011;10605;52.968;8.844;2023-02-28T14:03:42;2.03;;;1.60;;
20890;SDS011;10605;52.968;8.844;2023-02-28T14:06:29;1.70;;;1.60;;
20890;SDS011;10605;52.968;8.844;2023-02-28T14:09:15;1.58;;;1.48;;
20890;SDS011;10605;52.968;8.844;2023-02-28T14:11:57;1.48;;;1.38;;
20890;SDS011;10605;52.968;8.844;2023-02-28T14:17:57;1.50;;;1.40;;
20890;SDS011;10605;52.968;8.844;2023-02-28T14:20:27;1.88;;;1.63;;
20890;SDS011;10605;52.968;8.844;2023-02-28T14:37:30;1.77;;;1.30;;
20890;SDS011;10605;52.968;8.844;2023-02-28T14:40:12;2.22;;;1.27;;
20890;SDS011;10605;52.968;8.844;2023-02-28T14:43:03;2.05;;;1.50;;
20890;SDS011;10605;52.968;8.844;2023-02-28T14:45:55;1.25;;;1.20;;
20890;SDS011;10605;52.968;8.844;2023-02-28T14:48:31;1.67;;;1.40;;
20890;SDS011;10605;52.968;8.844;2023-02-28T14:50:59;1.38;;;1.30;;
20890;SDS011;10605;52.968;8.844;2023-02-28T14:53:29;3.00;;;1.30;;
20890;SDS011;10605;52.968;8.844;2023-02-28T14:56:02;1.17;;;1.10;;
20890;SDS011;10605;52.968;8.844;2023-02-28T14:58:34;1.50;;;1.40;;
20890;SDS011;10605;52.968;8.844;2023-02-28T15:01:02;2.35;;;1.10;;
20890;SDS011;10605;52.968;8.844;2023-02-28T15:03:38;1.35;;;1.23;;
20890;SDS011;10605;52.968;8.844;2023-02-28T15:06:16;1.55;;;1.40;;
20890;SDS011;10605;52.968;8.844;2023-02-28T15:11:48;1.55;;;1.45;;
20890;SDS011;10605;52.968;8.844;2023-02-28T15:14:19;1.77;;;1.52;;
20890;SDS011;10605;52.968;8.844;2023-02-28T15:16:58;1.80;;;1.70;;
20890;SDS011;10605;52.968;8.844;2023-02-28T15:19:29;3.17;;;1.58;;
20890;SDS011;10605;52.968;8.844;2023-02-28T15:22:05;1.60;;;1.50;;
20890;SDS011;10605;52.968;8.844;2023-02-28T15:24:52;1.60;;;1.50;;
20890;SDS011;10605;52.968;8.844;2023-02-28T15:27:29;3.40;;;1.45;;
20890;SDS011;10605;52.968;8.844;2023-02-28T15:29:58;4.22;;;1.67;;
20890;SDS011;10605;52.968;8.844;2023-02-28T15:34:56;1.42;;;1.30;;
20890;SDS011;10605;52.968;8.844;2023-02-28T15:48:26;2.47;;;1.73;;
20890;SDS011;10605;52.968;8.844;2023-02-28T15:51:02;3.38;;;1.75;;
20890;SDS011;10605;52.968;8.844;2023-02-28T15:53:32;1.70;;;1.60;;
20890;SDS011;10605;52.968;8.844;2023-02-28T15:56:19;3.63;;;1.70;;
20890;SDS011;10605;52.968;8.844;2023-02-28T15:58:52;2.15;;;1.95;;
20890;SDS011;10605;52.968;8.844;2023-02-28T16:01:24;2.53;;;1.90;;
20890;SDS011;10605;52.968;8.844;2023-02-28T16:03:54;2.20;;;1.90;;
20890;SDS011;10605;52.968;8.844;2023-02-28T16:06:26;1.98;;;1.75;;
20890;SDS011;10605;52.968;8.844;2023-02-28T16:08:57;2.28;;;1.60;;
20890;SDS011;10605;52.968;8.844;2023-02-28T16:11:23;1.67;;;1.58;;
20890;SDS011;10605;52.968;8.844;2023-02-28T16:13:49;3.53;;;1.60;;
20890;SDS011;10605;52.968;8.844;2023-02-28T16:16:17;2.70;;;1.70;;
20890;SDS011;10605;52.968;8.844;2023-02-28T16:18:44;2.80;;;2.08;;
20890;SDS011;10605;52.968;8.844;2023-02-28T16:21:10;2.20;;;2.00;;
20890;SDS011;10605;52.968;8.844;2023-02-28T16:23:36;5.18;;;2.15;;
20890;SDS011;10605;52.968;8.844;2023-02-28T16:26:04;2.58;;;2.22;;
20890;SDS011;10605;52.968;8.844;2023-02-28T16:28:34;2.47;;;2.28;;
20890;SDS011;10605;52.968;8.844;2023-02-28T16:31:05;6.03;;;2.15;;
20890;SDS011;10605;52.968;8.844;2023-02-28T16:33:34;5.57;;;2.50;;
20890;SDS011;10605;52.968;8.844;2023-02-28T16:36:00;2.40;;;2.20;;
20890;SDS011;10605;52.968;8.844;2023-02-28T16:38:26;5.50;;;1.90;;
20890;SDS011;10605;52.968;8.844;2023-02-28T16:40:53;2.30;;;2.10;;
20890;SDS011;10605;52.968;8.844;2023-02-28T16:43:23;5.63;;;2.28;;
20890;SDS011;10605;52.968;8.844;2023-02-28T16:45:59;2.55;;;1.92;;
20890;SDS011;10605;52.968;8.844;2023-02-28T16:48:26;4.55;;;2.25;;
20890;SDS011;10605;52.968;8.844;2023-02-28T16:50:52;3.67;;;2.20;;
20890;SDS011;10605;52.968;8.844;2023-02-28T16:53:20;6.70;;;2.22;;
20890;SDS011;10605;52.968;8.844;2023-02-28T16:55:46;4.47;;;2.38;;
20890;SDS011;10605;52.968;8.844;2023-02-28T16:58:15;2.58;;;2.28;;
20890;SDS011;10605;52.968;8.844;2023-02-28T17:00:42;5.43;;;2.53;;
20890;SDS011;10605;52.968;8.844;2023-02-28T17:03:23;3.80;;;2.70;;
20890;SDS011;10605;52.968;8.844;2023-02-28T17:05:56;3.78;;;3.25;;
20890;SDS011;10605;52.968;8.844;2023-02-28T17:08:21;3.05;;;2.85;;
20890;SDS011;10605;52.968;8.844;2023-02-28T17:10:56;5.05;;;3.05;;
20890;SDS011;10605;52.968;8.844;2023-02-28T17:13:27;6.10;;;2.90;;
20890;SDS011;10605;52.968;8.844;2023-02-28T17:15:55;3.47;;;2.97;;
20890;SDS011;10605;52.968;8.844;2023-02-28T17:18:21;3.53;;;3.22;;
20890;SDS011;10605;52.968;8.844;2023-02-28T17:20:47;3.55;;;2.95;;
20890;SDS011;10605;52.968;8.844;2023-02-28T17:23:14;4.50;;;3.47;;
20890;SDS011;10605;52.968;8.844;2023-02-28T17:25:40;3.78;;;3.45;;
20890;SDS011;10605;52.968;8.844;2023-02-28T17:28:14;5.00;;;3.40;;
20890;SDS011;10605;52.968;8.844;2023-02-28T17:30:42;3.60;;;3.33;;
20890;SDS011;10605;52.968;8.844;2023-02-28T17:33:12;4.65;;;2.97;;
20890;SDS011;10605;52.968;8.844;2023-02-28T17:35:42;5.43;;;3.13;;
20890;SDS011;10605;52.968;8.844;2023-02-28T17:38:14;3.30;;;2.90;;
20890;SDS011;10605;52.968;8.844;2023-02-28T17:40:47;3.00;;;2.80;;
20890;SDS011;10605;52.968;8.844;2023-02-28T17:43:12;3.75;;;2.85;;
20890;SDS011;10605;52.968;8.844;2023-02-28T17:45:39;5.60;;;2.70;;